sensor_id;sensor_type;location;lat;lon;timestamp;temperature;humidity
44990;DHT22;30723;51.206;3.326;2022-07-29T00:01:15;19.40;99.90
44990;DHT22;30723;51.206;3.326;2022-07-29T00:03:42;19.40;99.90
44990;DHT22;30723;51.206;3.326;2022-07-29T00:06:08;19.30;99.90
44990;DHT22;30723;51.206;3.326;2022-07-29T00:08:35;19.30;99.90
44990;DHT22;30723;51.206;3.326;2022-07-29T00:11:01;19.20;99.90
44990;DHT22;30723;51.206;3.326;2022-07-29T00:13:29;19.20;99.90
44990;DHT22;30723;51.206;3.326;2022-07-29T00:15:54;19.20;99.90
44990;DHT22;30723;51.206;3.326;2022-07-29T00:18:20;19.20;99.90
44990;DHT22;30723;51.206;3.326;2022-07-29T00:20:47;19.10;99.90
44990;DHT22;30723;51.206;3.326;2022-07-29T00:23:12;19.00;99.90
44990;DHT22;30723;51.206;3.326;2022-07-29T00:25:39;18.90;99.90
44990;DHT22;30723;51.206;3.326;2022-07-29T00:28:05;18.90;99.90
44990;DHT22;30723;51.206;3.326;2022-07-29T00:30:31;18.80;99.90
44990;DHT22;30723;51.206;3.326;2022-07-29T00:32:57;18.80;99.90
44990;DHT22;30723;51.206;3.326;2022-07-29T00:35:24;18.70;99.90
44990;DHT22;30723;51.206;3.326;2022-07-29T00:38:08;18.60;99.90
44990;DHT22;30723;51.206;3.326;2022-07-29T00:40:34;18.50;99.90
44990;DHT22;30723;51.206;3.326;2022-07-29T00:43:01;18.50;99.90
44990;DHT22;30723;51.206;3.326;2022-07-29T00:45:28;18.40;99.90
44990;DHT22;30723;51.206;3.326;2022-07-29T00:47:56;18.30;99.90
44990;DHT22;30723;51.206;3.326;2022-07-29T00:50:23;18.40;99.90
44990;DHT22;30723;51.206;3.326;2022-07-29T00:52:52;18.30;99.90
44990;DHT22;30723;51.206;3.326;2022-07-29T00:55:19;18.30;99.90
44990;DHT22;30723;51.206;3.326;2022-07-29T00:57:46;18.20;99.90
44990;DHT22;30723;51.206;3.326;2022-07-29T01:00:16;18.10;99.90
44990;DHT22;30723;51.206;3.326;2022-07-29T01:02:44;18.10;99.90
44990;DHT22;30723;51.206;3.326;2022-07-29T01:05:11;18.00;99.90
44990;DHT22;30723;51.206;3.326;2022-07-29T01:07:40;18.00;99.90
44990;DHT22;30723;51.206;3.326;2022-07-29T01:10:09;17.90;99.90
44990;DHT22;30723;51.206;3.326;2022-07-29T01:12:38;17.90;99.90
44990;DHT22;30723;51.206;3.326;2022-07-29T01:15:07;17.80;99.90
44990;DHT22;30723;51.206;3.326;2022-07-29T01:20:40;17.70;99.90
44990;DHT22;30723;51.206;3.326;2022-07-29T01:26:41;17.60;99.90
44990;DHT22;30723;51.206;3.326;2022-07-29T01:32:29;17.50;99.90
44990;DHT22;30723;51.206;3.326;2022-07-29T01:35:48;17.50;99.90
44990;DHT22;30723;51.206;3.326;2022-07-29T01:38:27;17.40;99.90
44990;DHT22;30723;51.206;3.326;2022-07-29T01:41:15;17.30;99.90
44990;DHT22;30723;51.206;3.326;2022-07-29T01:44:10;17.30;99.90
44990;DHT22;30723;51.206;3.326;2022-07-29T01:46:58;17.30;99.90
44990;DHT22;30723;51.206;3.326;2022-07-29T01:49:49;17.20;99.90
44990;DHT22;30723;51.206;3.326;2022-07-29T01:52:38;17.10;99.90
44990;DHT22;30723;51.206;3.326;2022-07-29T01:55:27;17.10;99.90
44990;DHT22;30723;51.206;3.326;2022-07-29T01:57:57;17.00;99.90
44990;DHT22;30723;51.206;3.326;2022-07-29T02:00:44;16.90;99.90
44990;DHT22;30723;51.206;3.326;2022-07-29T02:03:11;16.90;99.90
44990;DHT22;30723;51.206;3.326;2022-07-29T02:05:59;16.80;99.90
44990;DHT22;30723;51.206;3.326;2022-07-29T02:08:46;16.80;99.90
44990;DHT22;30723;51.206;3.326;2022-07-29T02:11:33;16.70;99.90
44990;DHT22;30723;51.206;3.326;2022-07-29T02:14:00;16.70;99.90
44990;DHT22;30723;51.206;3.326;2022-07-29T02:16:47;16.60;99.90
44990;DHT22;30723;51.206;3.326;2022-07-29T02:19:14;16.70;99.90
44990;DHT22;30723;51.206;3.326;2022-07-29T02:22:00;16.70;99.90
44990;DHT22;30723;51.206;3.326;2022-07-29T02:24:26;16.70;99.90
44990;DHT22;30723;51.206;3.326;2022-07-29T02:27:13;16.70;99.90
44990;DHT22;30723;51.206;3.326;2022-07-29T02:30:00;16.60;99.90
44990;DHT22;30723;51.206;3.326;2022-07-29T02:32:46;16.60;99.90
44990;DHT22;30723;51.206;3.326;2022-07-29T02:35:16;16.60;99.90
44990;DHT22;30723;51.206;3.326;2022-07-29T02:37:44;16.60;99.90
44990;DHT22;30723;51.206;3.326;2022-07-29T02:40:33;16.60;99.90
44990;DHT22;30723;51.206;3.326;2022-07-29T02:43:02;16.60;99.90
44990;DHT22;30723;51.206;3.326;2022-07-29T02:45:30;16.60;99.90
44990;DHT22;30723;51.206;3.326;2022-07-29T02:47:59;16.50;99.90
44990;DHT22;30723;51.206;3.326;2022-07-29T02:50:49;16.50;99.90
44990;DHT22;30723;51.206;3.326;2022-07-29T02:53:23;16.40;99.90
44990;DHT22;30723;51.206;3.326;2022-07-29T02:59:13;16.40;99.90
44990;DHT22;30723;51.206;3.326;2022-07-29T03:01:42;16.40;99.90
44990;DHT22;30723;51.206;3.326;2022-07-29T03:04:10;16.40;99.90
44990;DHT22;30723;51.206;3.326;2022-07-29T03:06:38;16.40;99.90
44990;DHT22;30723;51.206;3.326;2022-07-29T03:09:10;16.30;99.90
44990;DHT22;30723;51.206;3.326;2022-07-29T03:11:39;16.30;99.90
44990;DHT22;30723;51.206;3.326;2022-07-29T03:14:07;16.30;99.90
44990;DHT22;30723;51.206;3.326;2022-07-29T03:16:34;16.20;99.90
44990;DHT22;30723;51.206;3.326;2022-07-29T03:19:03;16.20;99.90
44990;DHT22;30723;51.206;3.326;2022-07-29T03:21:31;16.20;99.90
44990;DHT22;30723;51.206;3.326;2022-07-29T03:23:57;16.10;99.90
44990;DHT22;30723;51.206;3.326;2022-07-29T03:26:24;16.10;99.90
44990;DHT22;30723;51.206;3.326;2022-07-29T03:28:51;16.10;99.90
44990;DHT22;30723;51.206;3.326;2022-07-29T03:31:18;16.00;99.90
44990;DHT22;30723;51.206;3.326;2022-07-29T03:33:45;16.00;99.90
44990;DHT22;30723;51.206;3.326;2022-07-29T03:36:11;16.00;99.90
44990;DHT22;30723;51.206;3.326;2022-07-29T03:38:38;16.00;99.90
44990;DHT22;30723;51.206;3.326;2022-07-29T03:41:09;16.00;99.90
44990;DHT22;30723;51.206;3.326;2022-07-29T03:43:38;15.90;99.90
44990;DHT22;30723;51.206;3.326;2022-07-29T03:46:09;15.90;99.90
44990;DHT22;30723;51.206;3.326;2022-07-29T03:48:39;15.90;99.90
44990;DHT22;30723;51.206;3.326;2022-07-29T03:51:07;15.90;99.90
44990;DHT22;30723;51.206;3.326;2022-07-29T03:53:42;15.90;99.90
44990;DHT22;30723;51.206;3.326;2022-07-29T03:56:10;15.80;99.90
44990;DHT22;30723;51.206;3.326;2022-07-29T03:58:39;15.80;99.90
44990;DHT22;30723;51.206;3.326;2022-07-29T04:01:06;15.80;99.90
44990;DHT22;30723;51.206;3.326;2022-07-29T04:03:33;15.80;99.90
44990;DHT22;30723;51.206;3.326;2022-07-29T04:06:05;15.80;99.90
44990;DHT22;30723;51.206;3.326;2022-07-29T04:08:33;15.70;99.90
44990;DHT22;30723;51.206;3.326;2022-07-29T04:11:01;15.80;99.90
44990;DHT22;30723;51.206;3.326;2022-07-29T04:13:27;15.70;99.90
44990;DHT22;30723;51.206;3.326;2022-07-29T04:15:53;15.70;99.90
44990;DHT22;30723;51.206;3.326;2022-07-29T04:18:20;15.70;99.90
44990;DHT22;30723;51.206;3.326;2022-07-29T04:20:47;15.60;99.90
44990;DHT22;30723;51.206;3.326;2022-07-29T04:23:13;15.60;99.90
44990;DHT22;30723;51.206;3.326;2022-07-29T04:25:41;15.60;99.90
44990;DHT22;30723;51.206;3.326;2022-07-29T04:28:08;15.60;99.90
44990;DHT22;30723;51.206;3.326;2022-07-29T04:30:36;15.60;99.90
44990;DHT22;30723;51.206;3.326;2022-07-29T04:33:05;15.50;99.90
44990;DHT22;30723;51.206;3.326;2022-07-29T04:35:35;15.60;99.90
44990;DHT22;30723;51.206;3.326;2022-07-29T04:38:03;15.60;99.90
44990;DHT22;30723;51.206;3.326;2022-07-29T04:40:30;15.60;99.90
44990;DHT22;30723;51.206;3.326;2022-07-29T04:42:59;15.50;99.90
44990;DHT22;30723;51.206;3.326;2022-07-29T04:45:26;15.50;99.90
44990;DHT22;30723;51.206;3.326;2022-07-29T04:47:53;15.50;99.90
44990;DHT22;30723;51.206;3.326;2022-07-29T04:50:20;15.60;99.90
44990;DHT22;30723;51.206;3.326;2022-07-29T04:52:47;15.60;99.90
44990;DHT22;30723;51.206;3.326;2022-07-29T04:55:13;15.60;99.90
44990;DHT22;30723;51.206;3.326;2022-07-29T04:57:39;15.70;99.90
44990;DHT22;30723;51.206;3.326;2022-07-29T05:00:09;15.70;99.90
44990;DHT22;30723;51.206;3.326;2022-07-29T05:02:35;15.80;99.90
44990;DHT22;30723;51.206;3.326;2022-07-29T05:05:02;15.90;99.90
44990;DHT22;30723;51.206;3.326;2022-07-29T05:07:29;15.90;99.90
44990;DHT22;30723;51.206;3.326;2022-07-29T05:09:56;15.90;99.90
44990;DHT22;30723;51.206;3.326;2022-07-29T05:12:23;16.00;99.90
44990;DHT22;30723;51.206;3.326;2022-07-29T05:14:49;16.00;99.90
44990;DHT22;30723;51.206;3.326;2022-07-29T05:17:15;16.00;99.90
44990;DHT22;30723;51.206;3.326;2022-07-29T05:19:41;16.10;99.90
44990;DHT22;30723;51.206;3.326;2022-07-29T05:22:10;16.20;99.90
44990;DHT22;30723;51.206;3.326;2022-07-29T05:24:37;16.20;99.90
44990;DHT22;30723;51.206;3.326;2022-07-29T05:27:04;16.30;99.90
44990;DHT22;30723;51.206;3.326;2022-07-29T05:29:30;16.40;99.90
44990;DHT22;30723;51.206;3.326;2022-07-29T05:31:57;16.60;99.90
44990;DHT22;30723;51.206;3.326;2022-07-29T05:34:23;16.90;99.90
44990;DHT22;30723;51.206;3.326;2022-07-29T05:36:50;17.20;99.90
44990;DHT22;30723;51.206;3.326;2022-07-29T05:39:18;17.60;99.90
44990;DHT22;30723;51.206;3.326;2022-07-29T05:41:45;18.00;99.90
44990;DHT22;30723;51.206;3.326;2022-07-29T05:44:12;18.40;99.90
44990;DHT22;30723;51.206;3.326;2022-07-29T05:46:39;19.00;99.90
44990;DHT22;30723;51.206;3.326;2022-07-29T05:49:06;19.30;99.90
44990;DHT22;30723;51.206;3.326;2022-07-29T05:51:52;19.60;99.90
44990;DHT22;30723;51.206;3.326;2022-07-29T05:54:19;20.00;99.90
44990;DHT22;30723;51.206;3.326;2022-07-29T05:56:46;20.40;99.90
44990;DHT22;30723;51.206;3.326;2022-07-29T05:59:12;20.90;99.90
44990;DHT22;30723;51.206;3.326;2022-07-29T06:01:38;21.30;99.90
44990;DHT22;30723;51.206;3.326;2022-07-29T06:04:06;21.40;99.90
44990;DHT22;30723;51.206;3.326;2022-07-29T06:06:34;21.70;99.90
44990;DHT22;30723;51.206;3.326;2022-07-29T06:09:01;22.10;99.90
44990;DHT22;30723;51.206;3.326;2022-07-29T06:11:27;22.30;99.90
44990;DHT22;30723;51.206;3.326;2022-07-29T06:13:54;22.50;99.90
44990;DHT22;30723;51.206;3.326;2022-07-29T06:16:20;22.80;99.90
44990;DHT22;30723;51.206;3.326;2022-07-29T06:18:46;23.10;99.90
44990;DHT22;30723;51.206;3.326;2022-07-29T06:21:13;23.20;99.90
44990;DHT22;30723;51.206;3.326;2022-07-29T06:23:40;23.50;99.90
44990;DHT22;30723;51.206;3.326;2022-07-29T06:26:07;23.80;99.90
44990;DHT22;30723;51.206;3.326;2022-07-29T06:28:33;24.20;99.90
44990;DHT22;30723;51.206;3.326;2022-07-29T06:31:00;24.20;99.90
44990;DHT22;30723;51.206;3.326;2022-07-29T06:33:27;24.40;99.90
44990;DHT22;30723;51.206;3.326;2022-07-29T06:35:52;24.60;99.90
44990;DHT22;30723;51.206;3.326;2022-07-29T06:38:20;25.00;99.90
44990;DHT22;30723;51.206;3.326;2022-07-29T06:40:47;25.00;99.90
44990;DHT22;30723;51.206;3.326;2022-07-29T06:43:48;25.00;99.90
44990;DHT22;30723;51.206;3.326;2022-07-29T06:46:17;25.30;99.90
44990;DHT22;30723;51.206;3.326;2022-07-29T06:48:44;25.80;99.90
44990;DHT22;30723;51.206;3.326;2022-07-29T06:51:11;26.10;99.90
44990;DHT22;30723;51.206;3.326;2022-07-29T06:53:39;26.60;98.90
44990;DHT22;30723;51.206;3.326;2022-07-29T06:56:06;26.40;98.00
44990;DHT22;30723;51.206;3.326;2022-07-29T06:58:34;26.40;98.00
44990;DHT22;30723;51.206;3.326;2022-07-29T07:01:05;26.80;97.30
44990;DHT22;30723;51.206;3.326;2022-07-29T07:03:32;27.30;96.70
44990;DHT22;30723;51.206;3.326;2022-07-29T07:05:59;27.80;95.70
44990;DHT22;30723;51.206;3.326;2022-07-29T07:08:26;27.70;94.40
44990;DHT22;30723;51.206;3.326;2022-07-29T07:10:52;28.30;94.30
44990;DHT22;30723;51.206;3.326;2022-07-29T07:13:20;29.00;93.30
44990;DHT22;30723;51.206;3.326;2022-07-29T07:15:47;29.10;92.20
44990;DHT22;30723;51.206;3.326;2022-07-29T07:18:15;29.60;91.50
44990;DHT22;30723;51.206;3.326;2022-07-29T07:20:42;29.50;90.40
44990;DHT22;30723;51.206;3.326;2022-07-29T07:23:09;28.90;90.40
44990;DHT22;30723;51.206;3.326;2022-07-29T07:25:36;27.90;90.70
44990;DHT22;30723;51.206;3.326;2022-07-29T07:28:03;27.40;92.10
44990;DHT22;30723;51.206;3.326;2022-07-29T07:30:30;27.50;91.70
44990;DHT22;30723;51.206;3.326;2022-07-29T07:32:56;28.30;91.30
44990;DHT22;30723;51.206;3.326;2022-07-29T07:35:22;29.10;90.50
44990;DHT22;30723;51.206;3.326;2022-07-29T07:37:49;29.70;89.20
44990;DHT22;30723;51.206;3.326;2022-07-29T07:40:15;30.20;86.90
44990;DHT22;30723;51.206;3.326;2022-07-29T07:42:41;30.70;86.20
44990;DHT22;30723;51.206;3.326;2022-07-29T07:45:10;31.30;84.10
44990;DHT22;30723;51.206;3.326;2022-07-29T07:47:38;31.60;81.20
44990;DHT22;30723;51.206;3.326;2022-07-29T07:50:08;31.80;81.30
44990;DHT22;30723;51.206;3.326;2022-07-29T07:52:37;32.20;78.70
44990;DHT22;30723;51.206;3.326;2022-07-29T07:55:11;32.20;77.60
44990;DHT22;30723;51.206;3.326;2022-07-29T07:57:37;32.30;76.30
44990;DHT22;30723;51.206;3.326;2022-07-29T08:00:04;32.70;76.60
44990;DHT22;30723;51.206;3.326;2022-07-29T08:02:30;33.40;74.70
44990;DHT22;30723;51.206;3.326;2022-07-29T08:04:56;33.60;73.70
44990;DHT22;30723;51.206;3.326;2022-07-29T08:07:22;33.80;71.40
44990;DHT22;30723;51.206;3.326;2022-07-29T08:09:48;34.20;71.30
44990;DHT22;30723;51.206;3.326;2022-07-29T08:12:13;33.90;67.90
44990;DHT22;30723;51.206;3.326;2022-07-29T08:14:39;34.00;68.90
44990;DHT22;30723;51.206;3.326;2022-07-29T08:17:05;34.00;68.50
44990;DHT22;30723;51.206;3.326;2022-07-29T08:19:31;34.30;67.40
44990;DHT22;30723;51.206;3.326;2022-07-29T08:21:58;34.90;65.90
44990;DHT22;30723;51.206;3.326;2022-07-29T08:24:25;35.40;65.40
44990;DHT22;30723;51.206;3.326;2022-07-29T08:27:13;35.70;63.10
44990;DHT22;30723;51.206;3.326;2022-07-29T08:29:40;35.40;62.80
44990;DHT22;30723;51.206;3.326;2022-07-29T08:32:07;35.60;62.80
44990;DHT22;30723;51.206;3.326;2022-07-29T08:34:33;35.80;62.50
44990;DHT22;30723;51.206;3.326;2022-07-29T08:36:58;35.10;62.50
44990;DHT22;30723;51.206;3.326;2022-07-29T08:39:25;35.20;62.30
44990;DHT22;30723;51.206;3.326;2022-07-29T08:41:52;35.50;61.20
44990;DHT22;30723;51.206;3.326;2022-07-29T08:44:21;35.90;59.90
44990;DHT22;30723;51.206;3.326;2022-07-29T08:46:48;36.50;59.90
44990;DHT22;30723;51.206;3.326;2022-07-29T08:49:17;36.50;59.40
44990;DHT22;30723;51.206;3.326;2022-07-29T08:51:44;36.70;59.20
44990;DHT22;30723;51.206;3.326;2022-07-29T08:54:12;35.70;59.80
44990;DHT22;30723;51.206;3.326;2022-07-29T08:56:42;36.10;59.10
44990;DHT22;30723;51.206;3.326;2022-07-29T08:59:09;36.40;58.90
44990;DHT22;30723;51.206;3.326;2022-07-29T09:01:38;36.30;58.60
44990;DHT22;30723;51.206;3.326;2022-07-29T09:04:10;35.70;58.00
44990;DHT22;30723;51.206;3.326;2022-07-29T09:06:39;35.80;57.60
44990;DHT22;30723;51.206;3.326;2022-07-29T09:09:05;36.20;57.40
44990;DHT22;30723;51.206;3.326;2022-07-29T09:11:33;35.40;58.50
44990;DHT22;30723;51.206;3.326;2022-07-29T09:13:59;36.10;57.70
44990;DHT22;30723;51.206;3.326;2022-07-29T09:16:26;37.00;56.20
44990;DHT22;30723;51.206;3.326;2022-07-29T09:19:36;36.80;56.20
44990;DHT22;30723;51.206;3.326;2022-07-29T09:22:08;37.30;54.30
44990;DHT22;30723;51.206;3.326;2022-07-29T09:24:39;37.50;54.40
44990;DHT22;30723;51.206;3.326;2022-07-29T09:27:28;37.90;53.50
44990;DHT22;30723;51.206;3.326;2022-07-29T09:30:04;38.90;53.40
44990;DHT22;30723;51.206;3.326;2022-07-29T09:32:33;38.60;52.30
44990;DHT22;30723;51.206;3.326;2022-07-29T09:35:19;38.40;52.30
44990;DHT22;30723;51.206;3.326;2022-07-29T09:37:49;39.40;51.10
44990;DHT22;30723;51.206;3.326;2022-07-29T09:40:23;39.40;51.20
44990;DHT22;30723;51.206;3.326;2022-07-29T09:42:50;39.00;51.20
44990;DHT22;30723;51.206;3.326;2022-07-29T09:47:59;38.70;50.90
44990;DHT22;30723;51.206;3.326;2022-07-29T09:50:42;39.20;49.70
44990;DHT22;30723;51.206;3.326;2022-07-29T09:53:09;39.70;49.00
44990;DHT22;30723;51.206;3.326;2022-07-29T09:55:52;39.60;48.80
44990;DHT22;30723;51.206;3.326;2022-07-29T09:58:22;39.70;48.20
44990;DHT22;30723;51.206;3.326;2022-07-29T10:00:50;40.10;47.10
44990;DHT22;30723;51.206;3.326;2022-07-29T10:03:17;41.00;46.90
44990;DHT22;30723;51.206;3.326;2022-07-29T10:05:44;41.50;45.80
44990;DHT22;30723;51.206;3.326;2022-07-29T10:08:12;41.50;45.20
44990;DHT22;30723;51.206;3.326;2022-07-29T10:10:42;41.60;44.70
44990;DHT22;30723;51.206;3.326;2022-07-29T10:13:15;41.30;44.90
44990;DHT22;30723;51.206;3.326;2022-07-29T10:15:44;39.90;44.70
44990;DHT22;30723;51.206;3.326;2022-07-29T10:18:14;39.90;45.80
44990;DHT22;30723;51.206;3.326;2022-07-29T10:20:45;40.50;45.10
44990;DHT22;30723;51.206;3.326;2022-07-29T10:23:12;41.20;44.40
44990;DHT22;30723;51.206;3.326;2022-07-29T10:25:39;41.50;43.90
44990;DHT22;30723;51.206;3.326;2022-07-29T10:28:05;40.90;43.40
44990;DHT22;30723;51.206;3.326;2022-07-29T10:30:31;40.80;44.20
44990;DHT22;30723;51.206;3.326;2022-07-29T10:33:29;40.50;44.30
44990;DHT22;30723;51.206;3.326;2022-07-29T10:42:19;40.90;43.60
44990;DHT22;30723;51.206;3.326;2022-07-29T10:44:47;40.00;44.40
44990;DHT22;30723;51.206;3.326;2022-07-29T10:47:39;40.50;44.30
44990;DHT22;30723;51.206;3.326;2022-07-29T10:50:07;41.50;44.20
44990;DHT22;30723;51.206;3.326;2022-07-29T10:52:55;41.70;42.90
44990;DHT22;30723;51.206;3.326;2022-07-29T10:55:34;42.10;42.40
44990;DHT22;30723;51.206;3.326;2022-07-29T10:58:13;41.30;43.50
44990;DHT22;30723;51.206;3.326;2022-07-29T11:00:39;41.20;42.40
44990;DHT22;30723;51.206;3.326;2022-07-29T11:03:05;41.80;43.10
44990;DHT22;30723;51.206;3.326;2022-07-29T11:05:51;40.40;43.10
44990;DHT22;30723;51.206;3.326;2022-07-29T11:08:20;40.80;43.10
44990;DHT22;30723;51.206;3.326;2022-07-29T11:10:50;40.20;43.70
44990;DHT22;30723;51.206;3.326;2022-07-29T11:16:07;40.00;44.80
44990;DHT22;30723;51.206;3.326;2022-07-29T11:18:33;39.70;43.90
44990;DHT22;30723;51.206;3.326;2022-07-29T11:20:59;39.90;44.90
44990;DHT22;30723;51.206;3.326;2022-07-29T11:23:30;40.50;44.50
44990;DHT22;30723;51.206;3.326;2022-07-29T11:26:13;40.30;44.60
44990;DHT22;30723;51.206;3.326;2022-07-29T11:29:03;40.70;43.00
44990;DHT22;30723;51.206;3.326;2022-07-29T11:31:35;41.40;42.10
44990;DHT22;30723;51.206;3.326;2022-07-29T11:45:08;41.30;41.80
44990;DHT22;30723;51.206;3.326;2022-07-29T11:47:40;41.50;42.10
44990;DHT22;30723;51.206;3.326;2022-07-29T11:50:09;40.70;41.50
44990;DHT22;30723;51.206;3.326;2022-07-29T11:52:40;41.20;42.20
44990;DHT22;30723;51.206;3.326;2022-07-29T11:55:15;41.40;41.80
44990;DHT22;30723;51.206;3.326;2022-07-29T11:57:51;41.10;42.80
44990;DHT22;30723;51.206;3.326;2022-07-29T12:00:30;41.60;41.50
44990;DHT22;30723;51.206;3.326;2022-07-29T12:02:59;42.50;41.30
44990;DHT22;30723;51.206;3.326;2022-07-29T12:10:32;40.40;40.70
44990;DHT22;30723;51.206;3.326;2022-07-29T12:12:59;40.70;41.10
44990;DHT22;30723;51.206;3.326;2022-07-29T12:15:25;41.10;40.50
44990;DHT22;30723;51.206;3.326;2022-07-29T12:17:51;39.90;41.60
44990;DHT22;30723;51.206;3.326;2022-07-29T12:20:28;40.70;41.80
44990;DHT22;30723;51.206;3.326;2022-07-29T12:22:55;40.70;41.80
44990;DHT22;30723;51.206;3.326;2022-07-29T12:25:23;41.40;41.40
44990;DHT22;30723;51.206;3.326;2022-07-29T12:28:03;41.70;41.20
44990;DHT22;30723;51.206;3.326;2022-07-29T12:30:38;42.10;40.30
44990;DHT22;30723;51.206;3.326;2022-07-29T12:33:12;41.10;40.40
44990;DHT22;30723;51.206;3.326;2022-07-29T12:35:41;40.30;40.90
44990;DHT22;30723;51.206;3.326;2022-07-29T12:38:09;39.40;42.30
44990;DHT22;30723;51.206;3.326;2022-07-29T12:40:36;39.70;41.40
44990;DHT22;30723;51.206;3.326;2022-07-29T12:43:16;39.60;42.50
44990;DHT22;30723;51.206;3.326;2022-07-29T12:45:48;39.50;42.30
44990;DHT22;30723;51.206;3.326;2022-07-29T12:48:16;40.50;41.50
44990;DHT22;30723;51.206;3.326;2022-07-29T12:50:59;42.00;40.40
44990;DHT22;30723;51.206;3.326;2022-07-29T12:53:26;42.10;39.50
44990;DHT22;30723;51.206;3.326;2022-07-29T12:55:53;40.60;39.20
44990;DHT22;30723;51.206;3.326;2022-07-29T12:58:30;41.00;40.30
44990;DHT22;30723;51.206;3.326;2022-07-29T13:01:16;39.50;40.90
44990;DHT22;30723;51.206;3.326;2022-07-29T13:03:48;40.60;40.70
44990;DHT22;30723;51.206;3.326;2022-07-29T13:06:36;40.30;42.10
44990;DHT22;30723;51.206;3.326;2022-07-29T13:09:16;41.40;40.60
44990;DHT22;30723;51.206;3.326;2022-07-29T13:11:50;41.10;41.00
44990;DHT22;30723;51.206;3.326;2022-07-29T13:17:19;39.60;42.60
44990;DHT22;30723;51.206;3.326;2022-07-29T13:19:53;40.10;42.10
44990;DHT22;30723;51.206;3.326;2022-07-29T13:22:30;40.80;40.50
44990;DHT22;30723;51.206;3.326;2022-07-29T13:24:59;39.80;41.50
44990;DHT22;30723;51.206;3.326;2022-07-29T13:27:31;39.50;42.10
44990;DHT22;30723;51.206;3.326;2022-07-29T13:30:00;39.20;42.40
44990;DHT22;30723;51.206;3.326;2022-07-29T13:32:28;39.50;42.30
44990;DHT22;30723;51.206;3.326;2022-07-29T13:34:56;39.80;41.90
44990;DHT22;30723;51.206;3.326;2022-07-29T13:37:23;40.20;41.40
44990;DHT22;30723;51.206;3.326;2022-07-29T13:39:50;40.40;41.30
44990;DHT22;30723;51.206;3.326;2022-07-29T13:42:16;40.40;41.00
44990;DHT22;30723;51.206;3.326;2022-07-29T13:44:43;40.90;40.70
44990;DHT22;30723;51.206;3.326;2022-07-29T13:47:10;40.50;40.90
44990;DHT22;30723;51.206;3.326;2022-07-29T13:49:37;40.50;41.30
44990;DHT22;30723;51.206;3.326;2022-07-29T13:52:04;39.40;42.50
44990;DHT22;30723;51.206;3.326;2022-07-29T13:54:32;38.40;44.00
44990;DHT22;30723;51.206;3.326;2022-07-29T13:56:59;37.90;44.70
44990;DHT22;30723;51.206;3.326;2022-07-29T13:59:26;38.30;45.40
44990;DHT22;30723;51.206;3.326;2022-07-29T14:01:52;38.60;45.00
44990;DHT22;30723;51.206;3.326;2022-07-29T14:04:19;39.40;43.50
44990;DHT22;30723;51.206;3.326;2022-07-29T14:06:45;38.10;44.80
44990;DHT22;30723;51.206;3.326;2022-07-29T14:09:11;37.60;45.70
44990;DHT22;30723;51.206;3.326;2022-07-29T14:11:37;37.90;45.20
44990;DHT22;30723;51.206;3.326;2022-07-29T14:14:07;37.20;46.70
44990;DHT22;30723;51.206;3.326;2022-07-29T14:16:33;36.80;46.30
44990;DHT22;30723;51.206;3.326;2022-07-29T14:18:59;38.20;46.10
44990;DHT22;30723;51.206;3.326;2022-07-29T14:21:26;38.20;45.00
44990;DHT22;30723;51.206;3.326;2022-07-29T14:23:53;38.30;44.80
44990;DHT22;30723;51.206;3.326;2022-07-29T14:26:21;37.00;45.00
44990;DHT22;30723;51.206;3.326;2022-07-29T14:28:49;36.90;46.00
44990;DHT22;30723;51.206;3.326;2022-07-29T14:31:15;37.40;45.70
44990;DHT22;30723;51.206;3.326;2022-07-29T14:33:42;36.50;46.50
44990;DHT22;30723;51.206;3.326;2022-07-29T14:36:08;36.10;46.70
44990;DHT22;30723;51.206;3.326;2022-07-29T14:38:35;36.70;47.10
44990;DHT22;30723;51.206;3.326;2022-07-29T14:41:01;36.80;46.70
44990;DHT22;30723;51.206;3.326;2022-07-29T14:43:27;38.00;46.50
44990;DHT22;30723;51.206;3.326;2022-07-29T14:45:52;38.70;45.80
44990;DHT22;30723;51.206;3.326;2022-07-29T14:48:19;38.00;45.30
44990;DHT22;30723;51.206;3.326;2022-07-29T14:50:46;37.80;46.00
44990;DHT22;30723;51.206;3.326;2022-07-29T14:53:11;37.40;46.70
44990;DHT22;30723;51.206;3.326;2022-07-29T14:55:39;38.20;46.30
44990;DHT22;30723;51.206;3.326;2022-07-29T14:58:06;37.20;46.20
44990;DHT22;30723;51.206;3.326;2022-07-29T15:00:32;37.40;46.90
44990;DHT22;30723;51.206;3.326;2022-07-29T15:03:18;38.10;46.30
44990;DHT22;30723;51.206;3.326;2022-07-29T15:05:46;38.60;45.10
44990;DHT22;30723;51.206;3.326;2022-07-29T15:08:13;37.60;45.70
44990;DHT22;30723;51.206;3.326;2022-07-29T15:10:39;36.30;47.40
44990;DHT22;30723;51.206;3.326;2022-07-29T15:13:06;36.50;47.30
44990;DHT22;30723;51.206;3.326;2022-07-29T15:15:32;36.30;47.40
44990;DHT22;30723;51.206;3.326;2022-07-29T15:17:57;36.20;48.80
44990;DHT22;30723;51.206;3.326;2022-07-29T15:20:24;35.70;48.00
44990;DHT22;30723;51.206;3.326;2022-07-29T15:22:53;35.90;48.20
44990;DHT22;30723;51.206;3.326;2022-07-29T15:25:22;36.70;48.70
44990;DHT22;30723;51.206;3.326;2022-07-29T15:27:48;36.80;47.20
44990;DHT22;30723;51.206;3.326;2022-07-29T15:30:14;35.70;48.00
44990;DHT22;30723;51.206;3.326;2022-07-29T15:32:44;35.50;48.90
44990;DHT22;30723;51.206;3.326;2022-07-29T15:35:11;35.50;48.00
44990;DHT22;30723;51.206;3.326;2022-07-29T15:37:39;34.70;49.20
44990;DHT22;30723;51.206;3.326;2022-07-29T15:40:08;33.90;50.70
44990;DHT22;30723;51.206;3.326;2022-07-29T15:42:36;32.90;52.80
44990;DHT22;30723;51.206;3.326;2022-07-29T15:45:05;32.80;53.60
44990;DHT22;30723;51.206;3.326;2022-07-29T15:47:31;32.00;54.40
44990;DHT22;30723;51.206;3.326;2022-07-29T15:49:58;31.90;54.30
44990;DHT22;30723;51.206;3.326;2022-07-29T15:52:25;31.30;55.80
44990;DHT22;30723;51.206;3.326;2022-07-29T15:54:52;30.70;56.70
44990;DHT22;30723;51.206;3.326;2022-07-29T15:57:19;30.70;57.00
44990;DHT22;30723;51.206;3.326;2022-07-29T15:59:46;30.60;57.70
44990;DHT22;30723;51.206;3.326;2022-07-29T16:02:11;30.10;58.40
44990;DHT22;30723;51.206;3.326;2022-07-29T16:04:46;29.80;58.80
44990;DHT22;30723;51.206;3.326;2022-07-29T16:07:12;28.90;61.00
44990;DHT22;30723;51.206;3.326;2022-07-29T16:09:39;28.50;60.10
44990;DHT22;30723;51.206;3.326;2022-07-29T16:12:06;28.00;63.30
44990;DHT22;30723;51.206;3.326;2022-07-29T16:14:34;27.50;62.50
44990;DHT22;30723;51.206;3.326;2022-07-29T16:17:00;26.90;65.20
44990;DHT22;30723;51.206;3.326;2022-07-29T16:19:29;26.40;66.20
44990;DHT22;30723;51.206;3.326;2022-07-29T16:21:55;26.20;68.20
44990;DHT22;30723;51.206;3.326;2022-07-29T16:24:22;25.80;69.10
44990;DHT22;30723;51.206;3.326;2022-07-29T16:26:49;25.60;70.60
44990;DHT22;30723;51.206;3.326;2022-07-29T16:29:17;25.60;71.30
44990;DHT22;30723;51.206;3.326;2022-07-29T16:31:44;25.40;71.40